Time;durP1;ratioP1;P1;durP2;ratioP2;P2;SDS_P1;SDS_P2;PMS_P1;PMS_P2;Temp;Humidity;BMP_temperature;BMP_pressure;BME280_temperature;BME280_humidity;BME280_pressure;Samples;Min_cycle;Max_cycle;Signal;HPM_P1;HPM_P2
2023/05/21 00:01:05;;;;;;;2.70;2.50;;;14.30;99.90;;;;;;5051299;28;20260;-71
2023/05/21 00:03:32;;;;;;;2.65;2.45;;;14.30;99.90;;;;;;5051983;28;20844;-72
2023/05/21 00:06:02;;;;;;;2.83;2.63;;;14.30;99.90;;;;;;5051215;28;20230;-72
2023/05/21 00:08:30;;;;;;;2.83;2.63;;;14.30;99.90;;;;;;5054636;28;20222;-72
2023/05/21 00:10:57;;;;;;;3.20;3.00;;;14.30;99.90;;;;;;5054298;28;20219;-75
2023/05/21 00:13:24;;;;;;;2.80;2.58;;;14.30;99.90;;;;;;5050016;28;20525;-72
2023/05/21 00:15:51;;;;;;;2.78;2.58;;;14.30;99.90;;;;;;5047073;28;20743;-72
2023/05/21 00:18:18;;;;;;;2.80;2.60;;;14.20;99.90;;;;;;5052747;28;20245;-72
2023/05/21 00:20:46;;;;;;;3.13;2.92;;;14.20;99.90;;;;;;5047449;28;20234;-72
2023/05/21 00:23:17;;;;;;;3.33;3.03;;;14.20;99.90;;;;;;5053987;28;20199;-72
2023/05/21 00:25:46;;;;;;;3.03;2.83;;;14.20;99.90;;;;;;5048525;28;20226;-71
2023/05/21 00:28:13;;;;;;;3.35;3.13;;;14.20;99.90;;;;;;5047605;28;20291;-71
2023/05/21 00:30:41;;;;;;;2.92;2.72;;;14.20;99.90;;;;;;5048157;28;20264;-74
2023/05/21 00:33:12;;;;;;;3.00;2.70;;;14.20;99.90;;;;;;5051847;28;20196;-72
2023/05/21 00:35:39;;;;;;;3.25;3.00;;;14.10;99.90;;;;;;5048925;28;20717;-72
2023/05/21 00:38:07;;;;;;;3.15;2.95;;;14.10;99.90;;;;;;5053164;28;20298;-72
2023/05/21 00:40:35;;;;;;;2.50;2.33;;;14.10;99.90;;;;;;5050586;28;20207;-72
2023/05/21 00:43:03;;;;;;;3.00;2.80;;;14.10;99.90;;;;;;5056887;28;20257;-72
2023/05/21 00:45:30;;;;;;;2.85;2.65;;;14.10;99.90;;;;;;5051403;28;20218;-72
2023/05/21 00:47:57;;;;;;;2.85;2.65;;;14.10;99.90;;;;;;5052226;28;20287;-72
2023/05/21 00:50:24;;;;;;;2.35;2.25;;;14.10;99.90;;;;;;5051184;28;20924;-72
2023/05/21 00:52:52;;;;;;;2.78;2.58;;;14.10;99.90;;;;;;5049779;28;20911;-71
2023/05/21 00:55:19;;;;;;;2.90;2.70;;;14.10;99.90;;;;;;5044831;28;20215;-72
2023/05/21 00:57:46;;;;;;;2.90;2.70;;;14.10;99.90;;;;;;5047245;28;20203;-72
2023/05/21 01:00:15;;;;;;;2.83;2.63;;;14.10;99.90;;;;;;5051640;28;23847;-72
2023/05/21 01:02:43;;;;;;;3.15;2.95;;;14.10;99.90;;;;;;5047858;28;20226;-72
2023/05/21 01:05:10;;;;;;;2.83;2.63;;;14.00;99.90;;;;;;5050442;28;20223;-72
2023/05/21 01:07:40;;;;;;;2.75;2.55;;;14.00;99.90;;;;;;5046665;28;20235;-72
2023/05/21 01:10:10;;;;;;;2.95;2.75;;;14.00;99.90;;;;;;5044181;28;20203;-70
2023/05/21 01:12:39;;;;;;;3.20;3.00;;;14.10;99.90;;;;;;5045267;28;20207;-71
2023/05/21 01:15:07;;;;;;;2.78;2.58;;;14.10;99.90;;;;;;5055270;28;20252;-71
2023/05/21 01:17:36;;;;;;;3.10;2.90;;;14.00;99.90;;;;;;5045831;28;20206;-71
2023/05/21 01:20:08;;;;;;;2.95;2.72;;;14.00;99.90;;;;;;5042150;28;20795;-72
2023/05/21 01:22:38;;;;;;;2.75;2.55;;;14.00;99.90;;;;;;5050910;28;20202;-72
2023/05/21 01:25:07;;;;;;;3.05;2.85;;;14.00;99.90;;;;;;5050817;28;21031;-71
2023/05/21 01:27:34;;;;;;;3.30;3.10;;;14.00;99.90;;;;;;5045553;28;20802;-71
2023/05/21 01:30:01;;;;;;;4.05;3.72;;;13.90;99.90;;;;;;5048719;28;20318;-71
2023/05/21 01:32:34;;;;;;;3.72;3.42;;;13.90;99.90;;;;;;5055381;28;20234;-71
2023/05/21 01:35:05;;;;;;;3.30;3.10;;;13.90;99.90;;;;;;5045915;28;20312;-72
2023/05/21 01:37:37;;;;;;;3.05;2.85;;;13.90;99.90;;;;;;5047320;28;20203;-71
2023/05/21 01:40:11;;;;;;;3.05;2.85;;;13.90;99.90;;;;;;5043015;28;20307;-72
2023/05/21 01:42:42;;;;;;;3.33;3.13;;;13.80;99.90;;;;;;5050440;28;20286;-71
2023/05/21 01:45:10;;;;;;;3.40;3.10;;;13.80;99.90;;;;;;5047462;28;20223;-72
2023/05/21 01:47:38;;;;;;;3.00;2.80;;;13.80;99.90;;;;;;5052416;28;20558;-72
2023/05/21 01:50:06;;;;;;;2.90;2.70;;;13.80;99.90;;;;;;5046117;28;20681;-71
2023/05/21 01:52:33;;;;;;;3.03;2.83;;;13.80;99.90;;;;;;5048822;28;20527;-71
2023/05/21 01:55:00;;;;;;;3.30;3.10;;;13.80;99.90;;;;;;5046392;28;20214;-72
2023/05/21 01:57:29;;;;;;;2.80;2.60;;;13.80;99.90;;;;;;5050754;28;20649;-71
2023/05/21 01:59:57;;;;;;;3.25;3.00;;;13.80;99.90;;;;;;5044483;28;20305;-72
2023/05/21 02:02:24;;;;;;;2.78;2.58;;;13.80;99.90;;;;;;5041181;28;20218;-72
2023/05/21 02:04:51;;;;;;;3.05;2.85;;;13.80;99.90;;;;;;5046297;28;20245;-72
2023/05/21 02:07:18;;;;;;;3.05;2.85;;;13.70;99.90;;;;;;5050554;28;20202;-74
2023/05/21 02:09:45;;;;;;;3.28;3.00;;;13.70;99.90;;;;;;5048993;28;20241;-72
2023/05/21 02:12:12;;;;;;;3.38;3.17;;;13.70;99.90;;;;;;5044479;28;20338;-72
2023/05/21 02:14:41;;;;;;;3.13;2.92;;;13.70;99.90;;;;;;5049830;28;20246;-72
2023/05/21 02:17:08;;;;;;;3.15;2.95;;;13.70;99.90;;;;;;5048936;28;20901;-71
2023/05/21 02:19:35;;;;;;;3.30;3.10;;;13.80;99.90;;;;;;5045724;28;20218;-72
2023/05/21 02:22:02;;;;;;;3.47;3.17;;;13.70;99.90;;;;;;5045496;28;20199;-72
2023/05/21 02:24:30;;;;;;;3.00;2.80;;;13.70;99.90;;;;;;5046539;28;20250;-72
2023/05/21 02:26:57;;;;;;;3.30;3.10;;;13.70;99.90;;;;;;5047678;28;20211;-71
2023/05/21 02:29:24;;;;;;;2.97;2.78;;;13.70;99.90;;;;;;5045519;28;20195;-72
2023/05/21 02:31:52;;;;;;;3.28;3.08;;;13.70;99.90;;;;;;5048084;28;20199;-72
2023/05/21 02:34:19;;;;;;;3.35;3.15;;;13.60;99.90;;;;;;5051013;28;20312;-71
2023/05/21 02:36:51;;;;;;;3.13;2.92;;;13.60;99.90;;;;;;5048297;28;20389;-72
2023/05/21 02:39:18;;;;;;;3.33;3.13;;;13.60;99.90;;;;;;5045495;28;20219;-72
2023/05/21 02:41:45;;;;;;;3.45;3.17;;;13.60;99.90;;;;;;5047206;28;20693;-72
2023/05/21 02:44:12;;;;;;;3.00;2.80;;;13.60;99.90;;;;;;5051554;28;20253;-72
2023/05/21 02:46:39;;;;;;;3.22;3.03;;;13.60;99.90;;;;;;5053527;28;20241;-73
2023/05/21 02:49:08;;;;;;;3.40;3.10;;;13.60;99.90;;;;;;5047664;28;20195;-72
2023/05/21 02:51:34;;;;;;;3.30;3.00;;;13.60;99.90;;;;;;5051697;28;20290;-72
2023/05/21 02:54:01;;;;;;;3.30;3.10;;;13.60;99.90;;;;;;5054876;28;20785;-72
2023/05/21 02:56:28;;;;;;;2.85;2.65;;;13.60;99.90;;;;;;5049256;28;20245;-72
2023/05/21 02:58:55;;;;;;;3.75;3.45;;;13.60;99.90;;;;;;5048316;28;20244;-72
2023/05/21 03:01:22;;;;;;;3.58;3.28;;;13.60;99.90;;;;;;5055276;28;20210;-72
2023/05/21 03:03:49;;;;;;;3.53;3.33;;;13.60;99.90;;;;;;5046675;28;20388;-72
2023/05/21 03:06:17;;;;;;;3.60;3.17;;;13.60;99.90;;;;;;5051780;28;20807;-73
2023/05/21 03:08:45;;;;;;;3.67;3.35;;;13.60;99.90;;;;;;5054108;28;20199;-71
2023/05/21 03:11:11;;;;;;;3.90;3.60;;;13.60;99.90;;;;;;5050922;28;20199;-72
2023/05/21 03:13:41;;;;;;;4.13;3.83;;;13.50;99.90;;;;;;5048714;28;20775;-72
2023/05/21 03:16:08;;;;;;;4.45;4.15;;;13.50;99.90;;;;;;5045460;28;20277;-72
2023/05/21 03:18:35;;;;;;;4.45;4.15;;;13.50;99.90;;;;;;5047290;28;20296;-71
2023/05/21 03:21:03;;;;;;;3.90;3.60;;;13.50;99.90;;;;;;5057057;28;20195;-71
2023/05/21 03:23:31;;;;;;;3.65;3.35;;;13.50;99.90;;;;;;5049137;28;20203;-72
2023/05/21 03:25:58;;;;;;;3.92;3.70;;;13.50;99.90;;;;;;5053420;28;20218;-72
2023/05/21 03:28:25;;;;;;;4.22;3.92;;;13.50;99.90;;;;;;5052121;28;20750;-71
2023/05/21 03:30:52;;;;;;;3.55;3.35;;;13.50;99.90;;;;;;5051911;28;20294;-72
2023/05/21 03:33:19;;;;;;;4.50;4.10;;;13.40;99.90;;;;;;5050464;28;20222;-71
2023/05/21 03:35:46;;;;;;;4.10;3.80;;;13.40;99.90;;;;;;5052804;28;20219;-71
2023/05/21 03:38:13;;;;;;;4.45;4.13;;;13.40;99.90;;;;;;5050518;28;20203;-72
2023/05/21 03:40:42;;;;;;;4.13;3.83;;;13.30;99.90;;;;;;5050963;28;20269;-71
2023/05/21 03:43:09;;;;;;;3.92;3.63;;;13.30;99.90;;;;;;5050962;28;20570;-72
2023/05/21 03:45:35;;;;;;;3.65;3.40;;;13.30;99.90;;;;;;5055554;28;20218;-72
2023/05/21 03:48:03;;;;;;;4.03;3.72;;;13.40;99.90;;;;;;5048678;28;20202;-71
2023/05/21 03:50:29;;;;;;;4.00;3.70;;;13.40;99.90;;;;;;5052003;28;20233;-71
2023/05/21 03:52:56;;;;;;;3.78;3.47;;;13.40;99.90;;;;;;5050682;28;20775;-71
2023/05/21 03:55:23;;;;;;;3.83;3.53;;;13.40;99.90;;;;;;5048687;28;20309;-72
2023/05/21 03:57:52;;;;;;;3.25;3.05;;;13.50;99.90;;;;;;5049513;28;20289;-72
2023/05/21 04:00:19;;;;;;;3.60;3.30;;;13.50;99.90;;;;;;5046905;28;20219;-72
2023/05/21 04:02:46;;;;;;;3.72;3.42;;;13.50;99.90;;;;;;5046298;28;20207;-74
2023/05/21 04:05:13;;;;;;;3.90;3.60;;;13.50;99.90;;;;;;5050768;28;20227;-74
2023/05/21 04:07:41;;;;;;;3.88;3.58;;;13.60;99.90;;;;;;5054511;28;20199;-72
2023/05/21 04:10:09;;;;;;;3.95;3.65;;;13.60;99.90;;;;;;5048507;28;20214;-72
2023/05/21 04:12:36;;;;;;;4.18;3.88;;;13.60;99.90;;;;;;5044594;28;20195;-72
2023/05/21 04:15:05;;;;;;;3.50;3.30;;;13.60;99.90;;;;;;5046209;28;20314;-72
2023/05/21 04:17:33;;;;;;;4.80;4.40;;;13.60;99.90;;;;;;5050257;28;20203;-72
2023/05/21 04:20:00;;;;;;;4.07;3.78;;;13.60;99.90;;;;;;5046468;28;20215;-71
2023/05/21 04:22:27;;;;;;;4.15;3.85;;;13.60;99.90;;;;;;5050467;28;20283;-72
2023/05/21 04:24:54;;;;;;;4.00;3.70;;;13.60;99.90;;;;;;5046491;28;20227;-72
2023/05/21 04:27:22;;;;;;;3.70;3.40;;;13.60;99.90;;;;;;5053320;28;20283;-71
2023/05/21 04:29:49;;;;;;;3.70;3.40;;;13.60;99.90;;;;;;5045786;28;20199;-71
2023/05/21 04:32:18;;;;;;;3.78;3.47;;;13.60;99.90;;;;;;5053751;28;20987;-71
2023/05/21 04:34:44;;;;;;;4.00;3.70;;;13.70;99.90;;;;;;5051924;28;21995;-71
2023/05/21 04:37:12;;;;;;;4.35;4.05;;;13.70;99.90;;;;;;5051274;28;20207;-72
2023/05/21 04:39:39;;;;;;;4.00;3.70;;;13.70;99.90;;;;;;5045970;28;20215;-71
2023/05/21 04:42:09;;;;;;;4.60;4.20;;;13.70;99.90;;;;;;5049131;28;20207;-72
2023/05/21 04:44:37;;;;;;;4.18;3.88;;;13.70;99.90;;;;;;5053149;28;20223;-71
2023/05/21 04:47:04;;;;;;;3.50;3.20;;;13.70;99.90;;;;;;5051380;28;20657;-71
2023/05/21 04:49:33;;;;;;;4.43;4.10;;;13.70;99.90;;;;;;5050037;28;20199;-72
2023/05/21 04:52:00;;;;;;;4.38;4.07;;;13.70;99.90;;;;;;5050453;28;20241;-71
2023/05/21 04:54:27;;;;;;;4.53;4.22;;;13.60;99.90;;;;;;5046953;28;20250;-71
2023/05/21 04:56:55;;;;;;;4.78;4.38;;;13.60;99.90;;;;;;5049271;28;20278;-72
2023/05/21 04:59:22;;;;;;;5.10;4.57;;;13.60;99.90;;;;;;5046008;28;20230;-71
2023/05/21 05:01:49;;;;;;;4.55;4.22;;;13.60;99.90;;;;;;5047203;28;20207;-71
2023/05/21 05:04:16;;;;;;;4.57;4.18;;;13.60;99.90;;;;;;5046463;28;20218;-71
2023/05/21 05:06:44;;;;;;;4.43;4.13;;;13.60;99.90;;;;;;5041475;28;20202;-71
2023/05/21 05:09:11;;;;;;;4.63;4.22;;;13.70;99.90;;;;;;5044943;28;20195;-72
2023/05/21 05:11:38;;;;;;;4.32;4.03;;;13.70;99.90;;;;;;5046951;28;20199;-72
2023/05/21 05:14:05;;;;;;;4.20;3.90;;;13.70;99.90;;;;;;5056557;28;20780;-72
2023/05/21 05:16:32;;;;;;;4.47;4.18;;;13.70;99.90;;;;;;5048607;28;20610;-75
2023/05/21 05:18:59;;;;;;;4.32;4.03;;;13.70;99.90;;;;;;5053349;28;20207;-72
2023/05/21 05:21:26;;;;;;;4.07;3.78;;;13.70;99.90;;;;;;5049341;28;20202;-72
2023/05/21 05:23:55;;;;;;;4.43;4.13;;;13.70;99.90;;;;;;5049343;28;20285;-72
2023/05/21 05:26:22;;;;;;;4.47;4.18;;;13.70;99.90;;;;;;5052884;28;20646;-72
2023/05/21 05:28:49;;;;;;;4.90;4.50;;;13.70;99.90;;;;;;5052383;28;20264;-71
2023/05/21 05:31:16;;;;;;;4.78;4.38;;;13.70;99.90;;;;;;5046557;28;20214;-72
2023/05/21 05:33:43;;;;;;;4.30;4.00;;;13.70;99.90;;;;;;5050574;28;20210;-71
2023/05/21 05:36:10;;;;;;;4.90;4.50;;;13.80;99.90;;;;;;5051221;28;20273;-71
2023/05/21 05:38:37;;;;;;;4.70;4.30;;;13.80;99.90;;;;;;5048246;28;20680;-72
2023/05/21 05:41:06;;;;;;;4.07;3.78;;;13.80;99.90;;;;;;5052251;28;20305;-72
2023/05/21 05:43:33;;;;;;;4.40;4.10;;;13.80;99.90;;;;;;5050543;28;23117;-72
2023/05/21 05:46:00;;;;;;;4.28;3.97;;;13.80;99.90;;;;;;5048226;28;20218;-71
2023/05/21 05:48:26;;;;;;;4.40;4.10;;;13.90;99.90;;;;;;5050164;28;20201;-71
2023/05/21 05:50:55;;;;;;;4.63;4.30;;;13.90;99.90;;;;;;5049102;28;20221;-71
2023/05/21 05:53:22;;;;;;;4.35;4.05;;;13.90;99.90;;;;;;5048538;28;20199;-71
2023/05/21 05:55:49;;;;;;;4.80;4.45;;;13.90;99.90;;;;;;5047130;28;20273;-71
2023/05/21 05:58:18;;;;;;;4.50;4.10;;;13.90;99.90;;;;;;5047775;28;20985;-72
2023/05/21 06:00:45;;;;;;;4.47;4.18;;;13.90;99.90;;;;;;5045540;28;20218;-71
2023/05/21 06:03:12;;;;;;;4.78;4.38;;;13.90;99.90;;;;;;5049532;28;20190;-71
2023/05/21 06:05:39;;;;;;;4.80;4.40;;;13.90;99.90;;;;;;5039143;28;20235;-72
2023/05/21 06:08:06;;;;;;;4.95;4.55;;;13.90;99.90;;;;;;5046055;28;20191;-71
2023/05/21 06:10:33;;;;;;;5.60;5.10;;;13.90;99.90;;;;;;5043628;28;20314;-72
2023/05/21 06:13:00;;;;;;;5.70;5.30;;;13.90;99.90;;;;;;5046119;28;20198;-73
2023/05/21 06:15:28;;;;;;;4.50;4.20;;;13.90;99.90;;;;;;5051619;28;20295;-72
2023/05/21 06:17:55;;;;;;;4.93;4.53;;;13.90;99.90;;;;;;5046752;28;20298;-72
2023/05/21 06:20:22;;;;;;;6.25;5.65;;;13.90;99.90;;;;;;5040682;28;20242;-72
2023/05/21 06:22:49;;;;;;;5.82;5.22;;;14.00;99.90;;;;;;5044535;28;20298;-72
2023/05/21 06:25:17;;;;;;;6.05;5.55;;;14.00;99.90;;;;;;5049668;28;20318;-72
2023/05/21 06:27:44;;;;;;;6.43;5.90;;;14.00;99.90;;;;;;5042457;28;20195;-75
2023/05/21 06:30:11;;;;;;;6.03;5.47;;;14.00;99.90;;;;;;5045310;28;20248;-72
2023/05/21 06:32:39;;;;;;;5.75;5.32;;;14.00;99.90;;;;;;5045900;28;20209;-72
2023/05/21 06:35:07;;;;;;;5.32;4.93;;;14.00;99.90;;;;;;5049933;28;20360;-74
2023/05/21 06:37:34;;;;;;;4.95;4.55;;;14.10;99.90;;;;;;5052437;28;20202;-71
2023/05/21 06:40:00;;;;;;;5.78;5.38;;;14.20;99.90;;;;;;5049239;28;20214;-72
2023/05/21 06:42:27;;;;;;;4.20;3.90;;;14.30;99.90;;;;;;5045989;28;20291;-72
2023/05/21 06:44:54;;;;;;;4.63;4.32;;;14.40;99.90;;;;;;5043797;28;20282;-72
2023/05/21 06:47:21;;;;;;;5.65;5.15;;;14.50;99.90;;;;;;5049857;28;20825;-72
2023/05/21 06:49:49;;;;;;;5.68;5.22;;;14.60;99.90;;;;;;5046236;28;20285;-72
2023/05/21 06:52:16;;;;;;;5.55;5.13;;;14.70;99.90;;;;;;5050957;28;20194;-72
2023/05/21 06:54:43;;;;;;;6.18;5.68;;;14.70;99.90;;;;;;5055401;28;20892;-72
2023/05/21 06:57:10;;;;;;;6.20;5.60;;;14.70;99.90;;;;;;5049692;28;20284;-72
2023/05/21 06:59:37;;;;;;;6.10;5.60;;;14.80;99.90;;;;;;5043363;28;20207;-72
2023/05/21 07:02:04;;;;;;;5.43;5.03;;;14.80;99.90;;;;;;5049943;28;20218;-72
2023/05/21 07:04:33;;;;;;;5.82;5.35;;;14.80;99.90;;;;;;5051024;28;20227;-72
2023/05/21 07:07:03;;;;;;;5.95;5.47;;;14.90;99.90;;;;;;5044507;28;20207;-72
2023/05/21 07:09:30;;;;;;;5.95;5.45;;;14.90;99.90;;;;;;5056251;28;20203;-73
2023/05/21 07:11:57;;;;;;;6.00;5.50;;;15.00;99.90;;;;;;5047705;28;20203;-72
2023/05/21 07:14:26;;;;;;;5.63;5.22;;;15.00;99.90;;;;;;5047981;28;20223;-72
2023/05/21 07:16:53;;;;;;;5.95;5.45;;;15.00;99.90;;;;;;5049693;28;21103;-72
2023/05/21 07:19:20;;;;;;;5.97;5.47;;;15.00;99.90;;;;;;5050996;28;20972;-72
2023/05/21 07:21:47;;;;;;;5.55;5.15;;;14.90;99.90;;;;;;5043005;28;20273;-72
2023/05/21 07:24:15;;;;;;;6.13;5.63;;;14.90;99.90;;;;;;5049382;28;20336;-72
2023/05/21 07:26:42;;;;;;;6.32;5.72;;;14.90;99.90;;;;;;5046883;28;20214;-73
2023/05/21 07:29:09;;;;;;;5.80;5.20;;;14.90;99.90;;;;;;5052888;28;20241;-72
2023/05/21 07:31:36;;;;;;;6.15;5.47;;;15.00;99.90;;;;;;5047755;28;20258;-71
2023/05/21 07:34:03;;;;;;;5.00;4.60;;;15.10;99.90;;;;;;5053678;28;20199;-72
2023/05/21 07:36:32;;;;;;;4.65;4.25;;;15.30;99.90;;;;;;5055079;28;20724;-72
2023/05/21 07:38:59;;;;;;;5.97;5.57;;;15.30;99.90;;;;;;5048567;28;20234;-74
2023/05/21 07:41:27;;;;;;;6.32;5.72;;;15.40;99.90;;;;;;5052908;28;20210;-72
2023/05/21 07:43:54;;;;;;;5.82;5.32;;;15.40;99.90;;;;;;5053690;28;20229;-72
2023/05/21 07:46:22;;;;;;;6.05;5.47;;;15.40;99.90;;;;;;5057868;28;20264;-73
2023/05/21 07:48:49;;;;;;;5.22;4.78;;;15.60;99.90;;;;;;5058956;28;20664;-74
2023/05/21 07:51:17;;;;;;;5.40;5.00;;;15.80;99.90;;;;;;5052698;28;20260;-73
2023/05/21 07:53:44;;;;;;;5.78;5.28;;;15.90;99.90;;;;;;5046260;28;20678;-71
2023/05/21 07:56:10;;;;;;;5.65;5.15;;;16.00;99.90;;;;;;5048710;28;20250;-71
2023/05/21 07:58:39;;;;;;;6.05;5.55;;;16.10;99.90;;;;;;5045279;28;20275;-72
2023/05/21 08:01:06;;;;;;;5.80;5.30;;;16.20;99.90;;;;;;5047818;28;20308;-72
2023/05/21 08:03:33;;;;;;;5.53;5.03;;;16.30;99.90;;;;;;5047414;28;20355;-71
2023/05/21 08:06:00;;;;;;;6.00;5.50;;;16.40;99.90;;;;;;5046664;28;20225;-72
2023/05/21 08:08:27;;;;;;;6.90;6.30;;;16.50;99.90;;;;;;5047375;28;20298;-72
2023/05/21 08:10:55;;;;;;;6.25;5.75;;;16.40;99.90;;;;;;5049992;28;20195;-72
2023/05/21 08:13:22;;;;;;;6.22;5.72;;;16.20;99.90;;;;;;5048202;28;20741;-72
2023/05/21 08:15:50;;;;;;;6.07;5.57;;;16.30;99.90;;;;;;5052545;28;20589;-72
2023/05/21 08:18:17;;;;;;;6.18;5.63;;;16.50;99.90;;;;;;5047448;28;20191;-72
2023/05/21 08:20:44;;;;;;;5.95;5.38;;;16.70;99.90;;;;;;5051102;28;20221;-73
2023/05/21 08:23:14;;;;;;;5.70;5.20;;;16.80;99.90;;;;;;5055509;28;20292;-74
2023/05/21 08:25:41;;;;;;;5.97;5.47;;;16.80;99.90;;;;;;5057441;28;20283;-74
2023/05/21 08:28:08;;;;;;;5.70;5.20;;;17.00;99.90;;;;;;5060052;28;20218;-73
2023/05/21 08:30:35;;;;;;;6.30;5.70;;;17.20;99.90;;;;;;5056325;28;20221;-74
2023/05/21 08:33:03;;;;;;;5.63;5.20;;;17.40;99.90;;;;;;5063418;28;20199;-74
2023/05/21 08:35:30;;;;;;;6.63;6.03;;;17.50;99.90;;;;;;5027038;28;20227;-75
2023/05/21 08:37:58;;;;;;;6.60;5.40;;;17.80;99.90;;;;;;5032867;28;20341;-73
2023/05/21 08:40:25;;;;;;;6.85;6.25;;;17.80;99.90;;;;;;5024680;28;20222;-73
2023/05/21 08:42:52;;;;;;;6.97;6.38;;;17.70;99.90;;;;;;5024481;28;20286;-74
2023/05/21 08:45:21;;;;;;;7.35;6.65;;;17.60;99.90;;;;;;5030209;28;20255;-73
2023/05/21 08:47:55;;;;;;;6.80;6.20;;;17.50;99.90;;;;;;5032456;28;20494;-73
2023/05/21 08:50:26;;;;;;;6.93;6.22;;;17.40;99.90;;;;;;5030784;28;20281;-73
2023/05/21 08:52:55;;;;;;;7.38;6.68;;;17.40;99.90;;;;;;5024488;28;20200;-73
2023/05/21 08:55:22;;;;;;;7.15;6.32;;;17.40;99.90;;;;;;5034108;28;20230;-73
2023/05/21 08:57:49;;;;;;;7.30;6.70;;;17.40;99.90;;;;;;5032098;28;20209;-73
2023/05/21 09:00:19;;;;;;;6.80;6.20;;;17.40;99.90;;;;;;5023149;28;20313;-73
2023/05/21 09:02:46;;;;;;;6.90;6.40;;;17.50;99.90;;;;;;5025754;28;20202;-73
2023/05/21 09:05:15;;;;;;;6.43;5.93;;;17.50;99.90;;;;;;5027887;28;20282;-74
2023/05/21 09:07:48;;;;;;;6.57;6.07;;;17.70;99.90;;;;;;5030644;28;20259;-74
2023/05/21 09:10:22;;;;;;;6.63;5.95;;;17.90;99.90;;;;;;5028057;28;20203;-74
2023/05/21 09:12:50;;;;;;;6.53;5.93;;;18.00;99.90;;;;;;5028661;28;21000;-72
2023/05/21 09:15:17;;;;;;;6.63;6.03;;;18.10;99.90;;;;;;5028812;28;20254;-73
2023/05/21 09:17:47;;;;;;;6.18;5.65;;;18.30;99.90;;;;;;5026590;28;20208;-74
2023/05/21 09:20:15;;;;;;;6.82;6.18;;;18.80;99.90;;;;;;5026361;28;20204;-75
2023/05/21 09:22:44;;;;;;;6.95;6.25;;;19.50;99.90;;;;;;5030698;28;20203;-74
2023/05/21 09:25:13;;;;;;;6.75;6.15;;;20.30;99.90;;;;;;5029612;28;20364;-73
2023/05/21 09:27:40;;;;;;;7.07;6.47;;;21.00;99.90;;;;;;5026842;28;20231;-74
2023/05/21 09:30:11;;;;;;;7.10;6.50;;;21.20;99.90;;;;;;5022517;28;20692;-74
2023/05/21 09:32:38;;;;;;;6.55;5.95;;;21.20;99.90;;;;;;5030416;28;20192;-74
2023/05/21 09:35:09;;;;;;;6.85;5.80;;;21.10;99.90;;;;;;5027955;28;20281;-74
2023/05/21 09:37:40;;;;;;;6.30;5.80;;;20.90;99.90;;;;;;5024785;28;20270;-74
2023/05/21 09:40:16;;;;;;;8.05;6.45;;;21.00;99.90;;;;;;5029098;28;20261;-73
2023/05/21 09:42:45;;;;;;;5.80;5.35;;;21.20;99.90;;;;;;5026444;28;20278;-74
2023/05/21 09:45:13;;;;;;;5.85;5.45;;;21.30;99.90;;;;;;5032386;28;20982;-74
2023/05/21 09:47:43;;;;;;;6.90;6.28;;;21.50;99.90;;;;;;5025470;28;20237;-75
2023/05/21 09:50:11;;;;;;;6.53;6.03;;;21.30;99.90;;;;;;5027054;28;20231;-75
2023/05/21 09:52:38;;;;;;;6.60;6.10;;;21.20;99.90;;;;;;5024725;28;20250;-74
2023/05/21 09:55:06;;;;;;;6.13;5.63;;;21.20;99.90;;;;;;5028066;28;20234;-73
2023/05/21 09:57:41;;;;;;;5.85;5.38;;;21.20;99.90;;;;;;5032821;28;20214;-75
2023/05/21 10:00:11;;;;;;;6.38;5.88;;;21.30;99.90;;;;;;5034214;28;20233;-75
2023/05/21 10:02:44;;;;;;;6.10;5.60;;;21.40;99.90;;;;;;5037344;28;20274;-75
2023/05/21 10:05:13;;;;;;;6.57;5.97;;;21.60;99.90;;;;;;5038098;28;20280;-75
2023/05/21 10:07:42;;;;;;;6.32;5.72;;;21.20;99.90;;;;;;5039188;28;20222;-75
2023/05/21 10:10:13;;;;;;;6.53;6.00;;;21.30;99.90;;;;;;5033214;28;20257;-75
2023/05/21 10:12:43;;;;;;;7.43;6.72;;;21.50;99.90;;;;;;5029696;28;20286;-76
2023/05/21 10:15:15;;;;;;;6.93;6.32;;;21.60;99.90;;;;;;5028388;28;20266;-73
2023/05/21 10:17:43;;;;;;;7.10;6.40;;;21.60;99.90;;;;;;5030124;28;20214;-76
2023/05/21 10:20:11;;;;;;;9.15;7.68;;;21.30;99.90;;;;;;5032191;28;20203;-74
2023/05/21 10:22:39;;;;;;;8.13;7.32;;;21.40;99.90;;;;;;5033450;28;20227;-74
2023/05/21 10:25:08;;;;;;;9.32;8.10;;;21.70;99.90;;;;;;5032682;28;20423;-75
2023/05/21 10:27:36;;;;;;;7.70;6.57;;;22.10;99.90;;;;;;5030433;28;20573;-75
2023/05/21 10:30:08;;;;;;;7.60;6.90;;;22.30;99.90;;;;;;5031259;28;20234;-75
2023/05/21 10:32:35;;;;;;;7.47;6.28;;;22.20;99.90;;;;;;5030210;28;20199;-76
2023/05/21 10:35:02;;;;;;;7.03;6.40;;;22.10;99.90;;;;;;5028270;28;20220;-75
2023/05/21 10:37:29;;;;;;;6.80;6.20;;;21.80;99.90;;;;;;5028184;28;20776;-75
2023/05/21 10:39:57;;;;;;;6.28;5.72;;;21.30;99.90;;;;;;5025660;28;20195;-73
2023/05/21 10:42:57;;;;;;;6.30;5.70;;;21.20;99.90;;;;;;5024423;28;20250;-74
2023/05/21 10:45:36;;;;;;;6.93;6.28;;;21.60;99.90;;;;;;5028482;28;20219;-74
2023/05/21 10:48:18;;;;;;;6.60;6.00;;;22.00;99.90;;;;;;5031336;28;20199;-73
2023/05/21 10:51:05;;;;;;;6.90;6.30;;;22.00;99.90;;;;;;5044855;28;20210;-74
2023/05/21 10:53:44;;;;;;;6.00;5.50;;;22.30;99.90;;;;;;5045830;28;20198;-74
2023/05/21 10:56:18;;;;;;;6.30;5.80;;;22.20;99.90;;;;;;5043829;28;20215;-74
2023/05/21 10:59:02;;;;;;;6.80;6.20;;;22.00;99.90;;;;;;5046823;28;20279;-73
2023/05/21 11:01:34;;;;;;;6.30;5.70;;;22.30;99.90;;;;;;5046225;28;20238;-78
2023/05/21 11:04:02;;;;;;;5.22;4.82;;;22.70;99.90;;;;;;5048153;28;20210;-74
2023/05/21 11:06:29;;;;;;;5.72;5.22;;;23.10;99.90;;;;;;5050168;28;20199;-74
2023/05/21 11:08:56;;;;;;;6.18;5.57;;;23.30;99.90;;;;;;5046625;28;20207;-74
2023/05/21 11:11:43;;;;;;;6.28;5.68;;;23.50;99.90;;;;;;5037470;28;20241;-74
2023/05/21 11:14:27;;;;;;;6.40;5.90;;;23.40;99.90;;;;;;5026765;28;20281;-75
2023/05/21 11:16:55;;;;;;;6.20;5.60;;;23.50;99.90;;;;;;5025888;28;20226;-74
2023/05/21 11:19:32;;;;;;;6.65;6.05;;;23.60;99.90;;;;;;5027387;28;20207;-73
2023/05/21 11:21:59;;;;;;;6.38;5.78;;;23.70;99.90;;;;;;5033642;28;20314;-73
2023/05/21 11:24:27;;;;;;;6.47;5.88;;;24.00;99.90;;;;;;5032978;28;20311;-72
2023/05/21 11:27:03;;;;;;;6.03;5.35;;;23.90;99.90;;;;;;5028530;28;20285;-73
2023/05/21 11:29:47;;;;;;;5.13;4.72;;;24.10;99.90;;;;;;5027139;28;20231;-73
2023/05/21 11:32:19;;;;;;;5.60;5.10;;;24.10;99.90;;;;;;5020326;28;20255;-73
2023/05/21 11:34:47;;;;;;;5.45;5.05;;;24.00;99.90;;;;;;5032872;28;20284;-72
2023/05/21 11:37:40;;;;;;;5.45;4.95;;;24.00;99.90;;;;;;5026884;28;20301;-73
2023/05/21 11:40:26;;;;;;;5.90;5.40;;;24.20;99.90;;;;;;5002269;28;20298;-74
2023/05/21 11:42:54;;;;;;;5.45;5.05;;;24.30;99.90;;;;;;5026866;28;20302;-73
2023/05/21 11:45:23;;;;;;;5.35;4.88;;;24.30;99.90;;;;;;5031808;28;20730;-73
2023/05/21 11:47:52;;;;;;;5.75;5.20;;;24.30;99.90;;;;;;5036672;28;20203;-73
2023/05/21 11:50:19;;;;;;;5.75;5.25;;;24.50;99.90;;;;;;5029440;28;20199;-74
2023/05/21 11:52:47;;;;;;;5.85;5.35;;;24.50;99.90;;;;;;5037691;28;20591;-72
2023/05/21 11:55:15;;;;;;;5.57;5.07;;;24.60;99.90;;;;;;5030468;28;20285;-72
2023/05/21 11:57:43;;;;;;;5.78;5.28;;;24.70;99.90;;;;;;5029513;28;20206;-73
2023/05/21 12:00:15;;;;;;;5.20;4.80;;;24.90;99.90;;;;;;5029655;28;20209;-72
2023/05/21 12:02:46;;;;;;;6.00;5.50;;;24.90;99.90;;;;;;5033139;28;20253;-73
2023/05/21 12:05:14;;;;;;;7.25;4.80;;;24.90;99.90;;;;;;5029158;28;22750;-72
2023/05/21 12:07:41;;;;;;;5.57;5.07;;;25.10;99.90;;;;;;5029185;28;20759;-73
2023/05/21 12:10:09;;;;;;;5.28;4.88;;;25.40;99.90;;;;;;5029610;28;20195;-73
2023/05/21 12:12:36;;;;;;;5.32;4.93;;;25.60;99.90;;;;;;5031825;28;20222;-72
2023/05/21 12:15:04;;;;;;;5.65;5.15;;;25.70;99.90;;;;;;5029224;28;20282;-73
2023/05/21 12:17:31;;;;;;;5.18;4.68;;;25.60;99.90;;;;;;5026405;28;20207;-73
2023/05/21 12:20:00;;;;;;;5.82;5.32;;;25.60;99.90;;;;;;5033376;28;20195;-73
2023/05/21 12:22:28;;;;;;;5.60;5.18;;;25.80;99.90;;;;;;5029158;28;20222;-73
2023/05/21 12:24:57;;;;;;;5.30;4.90;;;25.90;99.90;;;;;;5030073;28;20251;-71
2023/05/21 12:27:24;;;;;;;5.50;5.10;;;26.00;99.90;;;;;;5030985;28;20533;-73
2023/05/21 12:29:51;;;;;;;5.20;4.80;;;26.00;99.90;;;;;;5029433;28;20294;-73
2023/05/21 12:32:20;;;;;;;5.55;5.07;;;26.00;99.90;;;;;;5024812;28;20619;-73
2023/05/21 12:34:48;;;;;;;5.90;5.40;;;25.90;99.90;;;;;;5025404;28;20306;-72
2023/05/21 12:37:17;;;;;;;5.95;5.35;;;25.80;99.90;;;;;;5020892;28;20381;-73
2023/05/21 12:39:47;;;;;;;5.20;4.80;;;25.60;99.90;;;;;;5024642;28;20936;-72
2023/05/21 12:42:14;;;;;;;5.88;5.38;;;25.70;99.90;;;;;;5026164;28;20211;-73
2023/05/21 12:44:44;;;;;;;5.32;4.93;;;25.80;99.90;;;;;;5027889;28;20219;-73
2023/05/21 12:47:12;;;;;;;5.07;4.68;;;25.90;99.90;;;;;;5024374;28;20255;-73
2023/05/21 12:49:41;;;;;;;4.68;4.35;;;26.20;99.90;;;;;;5030888;28;20202;-72
2023/05/21 12:52:10;;;;;;;5.25;4.78;;;26.50;99.90;;;;;;5030745;28;20273;-72
2023/05/21 12:54:39;;;;;;;4.57;4.28;;;26.70;99.90;;;;;;5032452;28;20651;-74